< < Back
Terminal Aerodrome Forecast


Current Version              Previous Versions:   1  2  3  4  5  6  7  8  9  

Terminal Aerodrome Forecast

287
FTUS42 KILM 262329
TAFFLO
TAF
KFLO 262329Z 2700/2724 19008KT P6SM VCSH SCT030 BKN100
     FM270700 23008KT 3SM -SHRA BR SCT015 OVC080
      TEMPO 2709/2713 1SM +TSRA SCT007 BKN015CB
     FM271300 23006KT 4SM -RA BR BKN006 OVC015
     FM271500 32013G17KT 2SM -RA BR OVC004
     FM271800 36010KT 6SM -RA BKN010 OVC030=

Latest METAR

708
SAUS70 KWBC 271700 RRC
MTRFLO
METAR KFLO 271653Z 36010KT 1SM TSRA OVC008 12/11 A2970 RMK AO2 TSB07
SLP054 P0035 T01220106


USA.gov is the U.S. government's official web portal to all federal, state and local government web resources and services.